Pateros, Washington
Current Conditions -  °F | °C
As of 11:53 AM on Monday 26 Jan 2015 (Local Time) from KOMK Reporting Station
Moderate Fog Moderate Fog  
Wind Chill: 33°   Ceiling: 200
Heat Index: 33°   Visibility: 0.25mi
Dew Point: 33°   Wind: 3mph
Humidity: 100%   Direction: 200°SSW
Pressure: 30.08"   Gusts: NA
Location:  48.05°N, 119.9°W
Report Text: KOMK 261953Z AUTO 20003KT 1/4SM FG VV002 01/01 A3008 RMK AO2 SLP198 T00060006
Loading
Personal Weather Stations






























Interactive Weather Map New forecast layout! Learn more

10-Day Weather Forecast

Advertisements
Track Severe Weather on mobile